Time;durP1;ratioP1;P1;durP2;ratioP2;P2;SDS_P1;SDS_P2;PMS_P1;PMS_P2;Temp;Humidity;BMP_temperature;BMP_pressure;BME280_temperature;BME280_humidity;BME280_pressure;Samples;Min_cycle;Max_cycle;Signal;HPM_P1;HPM_P2
2022/08/28 00:03:57;;;;;;;6.93;2.17;;;;;;;17.99;100.00;98367.38;15275667;19;20034;-76
2022/08/28 00:09:02;;;;;;;6.28;1.73;;;;;;;17.93;100.00;98371.75;15276175;19;20010;-76
2022/08/28 00:14:08;;;;;;;8.98;2.10;;;;;;;17.97;100.00;98369.47;15276047;19;20014;-76
2022/08/28 00:19:16;;;;;;;5.55;1.88;;;;;;;17.93;100.00;98360.84;15275708;19;20006;-76
2022/08/28 00:24:21;;;;;;;7.50;2.15;;;;;;;17.93;100.00;98360.03;15277179;19;20038;-77
2022/08/28 00:29:26;;;;;;;7.85;2.00;;;;;;;17.92;100.00;98366.53;15325654;19;20073;-75
2022/08/28 00:34:34;;;;;;;7.90;2.15;;;;;;;17.86;100.00;98363.59;15312162;19;20011;-76
2022/08/28 00:39:38;;;;;;;6.53;2.05;;;;;;;17.84;100.00;98364.84;15291306;19;20037;-76
2022/08/28 00:44:44;;;;;;;6.45;1.80;;;;;;;17.81;100.00;98355.22;15287108;19;20038;-79
2022/08/28 00:49:54;;;;;;;5.82;1.80;;;;;;;17.77;100.00;98358.53;15294665;19;20562;-76
2022/08/28 00:55:03;;;;;;;8.30;1.90;;;;;;;17.84;100.00;98354.78;15291475;19;20006;-76
2022/08/28 01:00:09;;;;;;;7.63;2.05;;;;;;;17.69;100.00;98341.38;15280886;19;20026;-76
2022/08/28 01:05:18;;;;;;;4.78;1.70;;;;;;;17.69;100.00;98340.53;15285473;19;20014;-76
2022/08/28 01:10:25;;;;;;;7.25;1.98;;;;;;;17.67;100.00;98350.81;15286428;19;20507;-75
2022/08/28 01:15:34;;;;;;;7.25;1.88;;;;;;;17.61;100.00;98354.34;15281997;19;20027;-76
2022/08/28 01:20:48;;;;;;;6.85;2.00;;;;;;;17.52;100.00;98356.47;15287699;19;20066;-76
2022/08/28 01:25:55;;;;;;;6.43;1.70;;;;;;;17.52;100.00;98359.19;15278860;19;20014;-75
2022/08/28 01:31:00;;;;;;;7.55;1.92;;;;;;;17.51;100.00;98365.69;15277178;19;20358;-75
2022/08/28 01:36:06;;;;;;;6.35;1.88;;;;;;;17.41;100.00;98366.06;15277596;19;20010;-76
2022/08/28 01:41:15;;;;;;;9.52;1.95;;;;;;;17.37;100.00;98370.25;15274821;19;20019;-77
2022/08/28 01:46:19;;;;;;;7.82;2.00;;;;;;;17.32;100.00;98370.88;15275423;19;20021;-77
2022/08/28 01:51:24;;;;;;;8.45;1.77;;;;;;;17.33;100.00;98375.25;15278415;19;20022;-76
2022/08/28 01:56:32;;;;;;;8.10;2.00;;;;;;;17.27;100.00;98380.69;15276282;19;20081;-76
2022/08/28 02:01:37;;;;;;;5.93;1.63;;;;;;;17.20;100.00;98381.53;15269493;19;20038;-76
2022/08/28 02:06:42;;;;;;;7.03;1.95;;;;;;;17.21;100.00;98372.31;15273627;19;20010;-76
2022/08/28 02:11:49;;;;;;;8.60;2.00;;;;;;;17.20;100.00;98381.53;15278833;19;20010;-75
2022/08/28 02:16:54;;;;;;;7.88;1.73;;;;;;;17.18;100.00;98391.78;15275930;19;20018;-75
2022/08/28 02:21:59;;;;;;;5.63;1.73;;;;;;;17.10;100.00;98390.06;15279211;19;20371;-74
2022/08/28 02:27:07;;;;;;;6.55;1.70;;;;;;;17.08;100.00;98394.06;15271862;19;20057;-75
2022/08/28 02:32:12;;;;;;;7.30;1.95;;;;;;;17.06;100.00;98386.06;15279927;19;20517;-75
2022/08/28 02:37:17;;;;;;;5.18;1.70;;;;;;;17.07;100.00;98386.94;15262905;19;20038;-75
2022/08/28 02:42:25;;;;;;;6.32;1.85;;;;;;;17.04;100.00;98392.78;15275701;19;20490;-74
2022/08/28 02:47:30;;;;;;;6.18;1.63;;;;;;;17.02;100.00;98394.84;15269759;19;20006;-75
2022/08/28 02:52:36;;;;;;;5.15;1.48;;;;;;;16.98;100.00;98383.53;15281387;19;20033;-75
2022/08/28 02:57:44;;;;;;;7.05;1.80;;;;;;;16.94;100.00;98380.41;15271831;19;20054;-75
2022/08/28 03:02:49;;;;;;;7.70;1.90;;;;;;;16.96;100.00;98390.25;15277848;19;20052;-75
2022/08/28 03:07:56;;;;;;;7.45;1.90;;;;;;;16.91;100.00;98394.38;15260810;19;20287;-75
2022/08/28 03:13:04;;;;;;;6.90;1.67;;;;;;;16.85;100.00;98389.75;15275829;19;20057;-76
2022/08/28 03:18:09;;;;;;;6.97;1.58;;;;;;;16.78;100.00;98383.44;15277318;19;20131;-75
2022/08/28 03:23:30;;;;;;;7.68;1.70;;;;;;;16.68;100.00;98393.84;15277440;19;20471;-74
2022/08/28 03:28:41;;;;;;;5.75;1.75;;;;;;;16.62;100.00;98390.91;15272169;19;20042;-74
2022/08/28 03:33:46;;;;;;;6.60;1.73;;;;;;;16.58;100.00;98389.63;15275976;19;20038;-74
2022/08/28 03:38:53;;;;;;;6.22;1.70;;;;;;;16.49;100.00;98390.81;15263349;19;20033;-75
2022/08/28 03:44:01;;;;;;;7.40;1.70;;;;;;;16.45;100.00;98390.41;15272884;19;20014;-74
2022/08/28 03:49:06;;;;;;;6.53;1.77;;;;;;;16.46;100.00;98388.50;15266990;19;20018;-75
2022/08/28 03:54:11;;;;;;;6.40;1.80;;;;;;;16.41;100.00;98390.97;15271390;19;20041;-76
2022/08/28 03:59:18;;;;;;;5.95;1.70;;;;;;;16.39;100.00;98393.06;15273327;19;20670;-73
2022/08/28 04:04:23;;;;;;;7.50;1.52;;;;;;;16.33;100.00;98403.69;15273284;19;20007;-75
2022/08/28 04:09:28;;;;;;;6.80;1.80;;;;;;;16.33;100.00;98403.69;15264539;19;20744;-76
2022/08/28 04:14:35;;;;;;;6.57;1.70;;;;;;;16.27;100.00;98411.81;15266610;19;20030;-75
2022/08/28 04:19:40;;;;;;;6.80;1.80;;;;;;;16.26;100.00;98404.69;15274233;19;20018;-75
2022/08/28 04:24:44;;;;;;;6.72;1.73;;;;;;;16.25;100.00;98414.72;15273873;19;20015;-75
2022/08/28 04:29:52;;;;;;;6.75;1.83;;;;;;;16.23;100.00;98413.25;15272952;19;20018;-76
2022/08/28 04:34:56;;;;;;;8.40;1.90;;;;;;;16.14;100.00;98404.41;15284401;19;20815;-74
2022/08/28 04:40:01;;;;;;;8.50;2.08;;;;;;;16.15;100.00;98406.91;15295453;19;20022;-74
2022/08/28 04:45:09;;;;;;;8.30;1.73;;;;;;;16.11;100.00;98413.75;15267061;19;20349;-74
2022/08/28 04:50:14;;;;;;;8.75;1.85;;;;;;;16.08;100.00;98410.59;15271010;19;20010;-75
2022/08/28 04:55:19;;;;;;;9.20;2.05;;;;;;;16.00;100.00;98423.31;15267741;19;20014;-75
2022/08/28 05:00:48;;;;;;;8.50;1.98;;;;;;;15.96;100.00;98419.28;15268904;19;20438;-75
2022/08/28 05:05:54;;;;;;;7.28;1.92;;;;;;;15.94;100.00;98421.38;15266980;19;20060;-75
2022/08/28 05:10:59;;;;;;;7.75;1.90;;;;;;;15.98;100.00;98432.72;15270867;19;20017;-75
2022/08/28 05:16:07;;;;;;;6.25;1.75;;;;;;;15.96;100.00;98429.34;15258716;19;20038;-76
2022/08/28 05:21:14;;;;;;;5.63;1.70;;;;;;;15.93;100.00;98425.16;15278646;19;20043;-76
2022/08/28 05:26:21;;;;;;;7.30;2.00;;;;;;;15.90;100.00;98432.81;15279080;19;20357;-76
2022/08/28 05:31:33;;;;;;;6.65;1.80;;;;;;;15.83;100.00;98435.44;15281031;19;20026;-76
2022/08/28 05:36:40;;;;;;;6.00;1.90;;;;;;;15.82;100.00;98447.34;15280123;19;20015;-76
2022/08/28 05:41:46;;;;;;;7.07;2.00;;;;;;;15.87;100.00;98453.09;15285235;19;20023;-77
2022/08/28 05:46:54;;;;;;;7.97;1.83;;;;;;;15.86;100.00;98456.84;15270867;19;20042;-75
2022/08/28 05:51:59;;;;;;;6.32;2.00;;;;;;;15.83;100.00;98449.88;15280954;19;20014;-76
2022/08/28 05:57:05;;;;;;;6.05;1.77;;;;;;;15.89;100.00;98447.44;15280056;19;20050;-76
2022/08/28 06:02:12;;;;;;;8.18;1.90;;;;;;;15.91;100.00;98454.38;15283235;19;20046;-76
2022/08/28 06:07:18;;;;;;;9.52;2.10;;;;;;;15.95;100.00;98462.97;15278597;19;20328;-76
2022/08/28 06:12:22;;;;;;;9.07;2.03;;;;;;;15.97;100.00;98459.03;15282878;19;20010;-76
2022/08/28 06:17:30;;;;;;;9.10;1.90;;;;;;;16.02;100.00;98474.75;15276395;19;20081;-77
2022/08/28 06:22:35;;;;;;;5.82;1.67;;;;;;;16.05;100.00;98473.53;15270073;19;20021;-77
2022/08/28 06:27:39;;;;;;;7.40;1.92;;;;;;;16.09;100.00;98474.81;15272520;19;20018;-77
2022/08/28 06:32:49;;;;;;;8.45;2.10;;;;;;;16.06;100.00;98472.47;15278423;19;20038;-76
2022/08/28 06:37:55;;;;;;;6.95;2.00;;;;;;;16.13;100.00;98478.81;15276042;19;20470;-77
2022/08/28 06:43:00;;;;;;;6.03;2.10;;;;;;;16.19;100.00;98478.00;15277868;19;20014;-77
2022/08/28 06:48:07;;;;;;;7.43;2.10;;;;;;;16.20;100.00;98478.88;15276958;19;20593;-76
2022/08/28 06:53:14;;;;;;;6.35;2.00;;;;;;;16.31;100.00;98481.88;15269736;19;20023;-77
2022/08/28 06:58:19;;;;;;;8.70;2.00;;;;;;;16.39;100.00;98480.06;15279631;19;20030;-77
2022/08/28 07:03:27;;;;;;;8.65;1.92;;;;;;;16.47;100.00;98486.19;15280358;19;20503;-77
2022/08/28 07:08:33;;;;;;;6.60;1.98;;;;;;;16.54;100.00;98488.94;15277097;19;20038;-78
2022/08/28 07:13:38;;;;;;;7.18;1.98;;;;;;;16.70;100.00;98489.69;15276145;19;20625;-78
2022/08/28 07:18:45;;;;;;;6.20;1.90;;;;;;;16.75;100.00;98498.13;15274841;19;20495;-77
2022/08/28 07:23:50;;;;;;;7.75;1.90;;;;;;;16.83;100.00;98489.78;15264212;19;20018;-78
2022/08/28 07:28:56;;;;;;;6.10;2.20;;;;;;;16.89;100.00;98486.25;15268932;19;20022;-78
2022/08/28 07:34:16;;;;;;;5.07;1.77;;;;;;;16.97;100.00;98485.28;15274223;19;20015;-77
2022/08/28 07:39:21;;;;;;;6.60;2.03;;;;;;;16.94;100.00;98497.41;15273363;19;20019;-78
2022/08/28 07:49:47;;;;;;;6.47;2.00;;;;;;;17.06;100.00;98508.56;15273829;19;20022;-77
2022/08/28 07:54:53;;;;;;;7.50;2.20;;;;;;;17.11;100.00;98507.94;15273347;19;20645;-77
2022/08/28 07:59:58;;;;;;;5.93;2.00;;;;;;;17.10;100.00;98500.84;15260492;19;20372;-78
2022/08/28 08:05:06;;;;;;;7.22;1.98;;;;;;;17.06;100.00;98505.00;15272899;19;20011;-78
2022/08/28 08:10:13;;;;;;;6.88;2.35;;;;;;;17.17;100.00;98504.44;15266739;19;20102;-78
2022/08/28 08:15:23;;;;;;;6.78;2.17;;;;;;;17.17;100.00;98506.34;15278577;19;20019;-77
2022/08/28 08:20:36;;;;;;;6.13;1.93;;;;;;;17.24;100.00;98510.75;15279601;19;20030;-79
2022/08/28 08:25:41;;;;;;;7.05;2.10;;;;;;;17.38;100.00;98510.81;15299289;19;20288;-78
2022/08/28 08:30:45;;;;;;;5.90;2.00;;;;;;;17.39;100.00;98515.22;15274715;19;20671;-78
2022/08/28 08:35:54;;;;;;;6.60;1.90;;;;;;;17.43;100.00;98521.94;15268852;19;20623;-77
2022/08/28 08:41:00;;;;;;;6.05;1.95;;;;;;;17.49;100.00;98515.66;15269222;19;20018;-77
2022/08/28 08:46:05;;;;;;;5.63;2.03;;;;;;;17.52;100.00;98511.72;15268051;19;20014;-77
2022/08/28 08:51:24;;;;;;;6.65;2.00;;;;;;;17.48;100.00;98508.53;15266679;19;20078;-80
2022/08/28 08:56:29;;;;;;;5.70;2.00;;;;;;;17.61;100.00;98512.34;15275077;19;20018;-77
2022/08/28 09:01:43;;;;;;;8.10;1.98;;;;;;;17.70;100.00;98522.88;15281106;19;20625;-79
2022/08/28 09:06:54;;;;;;;5.53;2.08;;;;;;;17.71;100.00;98519.09;15280634;19;20014;-78
2022/08/28 09:12:02;;;;;;;6.03;2.00;;;;;;;17.81;100.00;98523.31;15287452;19;20164;-79
2022/08/28 09:17:08;;;;;;;6.72;2.03;;;;;;;17.98;100.00;98524.66;15280908;19;20490;-80
2022/08/28 09:22:16;;;;;;;6.18;2.00;;;;;;;17.78;100.00;98524.56;15285276;19;20042;-79
2022/08/28 09:27:26;;;;;;;5.57;2.10;;;;;;;17.83;100.00;98527.50;15279419;19;20357;-79
2022/08/28 09:32:33;;;;;;;6.25;2.13;;;;;;;18.05;100.00;98527.38;15273885;19;20011;-78
2022/08/28 09:37:42;;;;;;;7.63;2.10;;;;;;;18.27;100.00;98527.22;15277704;19;20018;-78
2022/08/28 09:48:42;;;;;;;4.93;2.05;;;;;;;18.45;100.00;98532.88;15275720;19;20501;-78
2022/08/28 09:54:24;;;;;;;6.77;2.30;;;;;;;18.66;100.00;98525.50;15278706;19;20006;-77
2022/08/28 09:59:30;;;;;;;5.68;2.00;;;;;;;18.88;100.00;98525.25;15281229;19;20042;-77
2022/08/28 10:04:57;;;;;;;4.45;1.85;;;;;;;18.87;100.00;98526.34;15268213;19;20064;-78
2022/08/28 10:10:17;;;;;;;8.15;2.30;;;;;;;18.86;100.00;98530.13;15275567;19;20022;-77
2022/08/28 10:15:28;;;;;;;5.73;2.20;;;;;;;19.00;100.00;98531.78;15280106;19;20011;-78
2022/08/28 10:20:47;;;;;;;5.45;1.90;;;;;;;18.98;100.00;98539.38;15282485;19;20031;-77
2022/08/28 10:25:59;;;;;;;6.18;2.10;;;;;;;19.13;100.00;98541.00;15277023;19;20042;-80
2022/08/28 10:31:12;;;;;;;8.05;2.20;;;;;;;19.11;100.00;98533.03;15274791;19;20025;-76
2022/08/28 10:36:23;;;;;;;5.65;2.15;;;;;;;19.28;100.00;98527.94;15277443;19;20018;-79
2022/08/28 10:41:46;;;;;;;4.50;1.80;;;;;;;19.40;100.00;98531.66;15277505;19;20015;-80
2022/08/28 10:46:54;;;;;;;5.20;2.00;;;;;;;19.55;100.00;98522.38;15275783;19;20020;-80
2022/08/28 10:52:03;;;;;;;6.15;2.03;;;;;;;19.70;100.00;98513.88;15280229;19;20038;-79
2022/08/28 10:57:23;;;;;;;6.47;2.30;;;;;;;19.84;100.00;98514.63;15274036;19;20022;-80
2022/08/28 11:02:29;;;;;;;4.38;1.90;;;;;;;20.00;100.00;98521.50;15279815;19;20019;-77
2022/08/28 11:07:38;;;;;;;5.50;2.00;;;;;;;20.13;100.00;98517.84;15275957;19;20014;-79
2022/08/28 11:12:46;;;;;;;5.72;2.13;;;;;;;20.19;100.00;98514.22;15270529;19;20022;-79
2022/08/28 11:17:51;;;;;;;7.47;2.17;;;;;;;20.33;100.00;98523.19;15277572;19;20087;-78
2022/08/28 11:23:02;;;;;;;4.72;1.98;;;;;;;20.58;100.00;98514.97;15275145;19;20014;-79
2022/08/28 11:28:21;;;;;;;4.47;1.85;;;;;;;20.72;100.00;98518.41;15282725;19;20026;-77
2022/08/28 11:33:38;;;;;;;4.85;2.00;;;;;;;20.72;100.00;98514.84;15285040;19;20460;-78
2022/08/28 11:39:03;;;;;;;4.55;2.00;;;;;;;20.85;100.00;98514.75;15282679;19;20038;-79
2022/08/28 11:44:28;;;;;;;5.70;1.80;;;;;;;21.00;100.00;98506.16;15275400;19;20010;-80
2022/08/28 11:49:43;;;;;;;3.58;1.67;;;;;;;;;;15285844;19;20048;-77
2022/08/28 11:54:58;;;;;;;3.60;1.70;;;;;;;21.34;100.00;98512.09;15282042;19;20706;-77
2022/08/28 12:00:23;;;;;;;6.40;1.95;;;;;;;21.24;100.00;98506.34;15287647;19;20042;-76
2022/08/28 12:05:47;;;;;;;5.28;2.00;;;;;;;20.97;100.00;98505.78;15283904;19;20007;-80
2022/08/28 12:10:58;;;;;;;4.43;1.83;;;;;;;20.96;100.00;98509.59;15286976;19;20018;-79
2022/08/28 12:16:09;;;;;;;;;;;;;;;20.74;100.00;98507.25;15275622;19;20014;-77
2022/08/28 12:21:18;;;;;;;4.53;2.00;;;;;;;20.99;100.00;98509.16;15310212;19;19923;-78
2022/08/28 12:26:27;;;;;;;4.18;1.90;;;;;;;21.12;100.00;98499.94;15325214;19;20292;-79
2022/08/28 12:32:15;;;;;;;3.67;1.52;;;;;;;21.48;100.00;98498.25;15291442;19;20042;-80
2022/08/28 12:37:33;;;;;;;5.55;1.90;;;;;;;21.44;100.00;98499.75;15304163;19;20014;-79
2022/08/28 12:42:59;;;;;;;3.47;1.67;;;;;;;21.47;100.00;98496.56;15303941;19;20018;-79
2022/08/28 12:48:19;;;;;;;4.32;1.75;;;;;;;21.41;100.00;98501.06;15290109;19;20027;-78
2022/08/28 12:53:26;;;;;;;4.73;1.80;;;;;;;21.64;100.00;98500.34;15301298;19;20050;-80
2022/08/28 12:58:35;;;;;;;4.35;1.75;;;;;;;21.80;100.00;98498.91;15297601;19;20021;-79
2022/08/28 13:03:50;;;;;;;4.55;1.90;;;;;;;22.02;100.00;98490.13;15303799;19;20094;-78
2022/08/28 13:09:04;;;;;;;4.35;1.50;;;;;;;22.21;100.00;98488.16;15323721;19;20032;-79
2022/08/28 13:14:09;;;;;;;3.80;1.60;;;;;;;22.19;100.00;98484.81;15344980;19;20010;-79
2022/08/28 13:19:28;;;;;;;4.18;1.73;;;;;;;22.53;100.00;98484.25;15291327;19;20029;-79
2022/08/28 13:24:47;;;;;;;5.40;1.58;;;;;;;22.90;100.00;98481.28;15303350;19;20015;-77
2022/08/28 13:30:06;;;;;;;3.88;1.63;;;;;;;23.15;100.00;98480.16;15288065;19;20042;-77
2022/08/28 13:35:16;;;;;;;3.00;1.30;;;;;;;23.05;93.75;98484.38;15289594;19;20014;-79
2022/08/28 13:40:26;;;;;;;3.00;1.23;;;;;;;22.98;87.66;98475.44;15289512;19;20014;-77
2022/08/28 13:45:52;;;;;;;2.83;1.50;;;;;;;23.05;100.00;98473.38;15287876;19;20030;-78
2022/08/28 13:51:01;;;;;;;3.17;1.20;;;;;;;23.18;94.78;98476.94;15280896;19;20899;-78
2022/08/28 13:56:12;;;;;;;2.90;1.40;;;;;;;23.23;99.67;98468.81;15264507;19;20383;-78
2022/08/28 14:03:34;;;;;;;3.28;1.30;;;;;;;23.34;100.00;98467.94;15305113;19;20024;-79
2022/08/28 14:06:47;;;;;;;2.38;1.20;;;;;;;23.64;82.99;98471.56;15278202;19;20010;-77
2022/08/28 14:11:56;;;;;;;3.30;1.40;;;;;;;23.97;100.00;98467.25;15278929;19;20022;-80
2022/08/28 14:17:01;;;;;;;2.75;1.48;;;;;;;24.55;100.00;98461.59;15285604;19;20448;-78
2022/08/28 14:22:06;;;;;;;3.35;1.60;;;;;;;24.99;91.05;98460.88;15288775;19;20047;-77
2022/08/28 14:27:13;;;;;;;4.00;1.30;;;;;;;24.82;93.67;98463.66;15279217;19;20042;-78
2022/08/28 14:32:18;;;;;;;2.95;1.50;;;;;;;24.82;90.60;98464.50;15287891;19;20010;-78
2022/08/28 14:37:23;;;;;;;2.92;1.25;;;;;;;24.58;87.10;98459.16;15293158;19;20018;-78
2022/08/28 14:42:30;;;;;;;2.83;1.33;;;;;;;25.00;94.28;98457.00;15294694;19;20014;-78
2022/08/28 14:47:38;;;;;;;3.63;1.50;;;;;;;25.49;90.90;98454.34;15288286;19;20015;-78
2022/08/28 14:52:44;;;;;;;2.75;1.27;;;;;;;25.80;83.02;98457.47;15284935;19;20013;-78
2022/08/28 14:57:56;;;;;;;2.72;1.35;;;;;;;26.14;80.49;98451.72;15280004;19;20019;-78
2022/08/28 15:03:01;;;;;;;2.00;1.10;;;;;;;26.28;64.07;98454.88;15290587;19;20038;-78
2022/08/28 15:08:08;;;;;;;2.08;1.10;;;;;;;25.65;55.75;98449.00;15288917;19;20010;-76
2022/08/28 15:13:16;;;;;;;2.45;1.17;;;;;;;25.80;57.85;98449.19;15288473;19;20011;-78
2022/08/28 15:18:20;;;;;;;5.15;1.30;;;;;;;26.00;60.61;98450.47;15290712;19;20084;-79
2022/08/28 15:23:25;;;;;;;3.63;1.45;;;;;;;26.12;66.81;98458.59;15291037;19;20011;-80
2022/08/28 15:28:33;;;;;;;3.78;1.65;;;;;;;26.20;71.96;98460.88;15280190;19;20037;-78
2022/08/28 15:33:38;;;;;;;9.23;5.57;;;;;;;26.60;78.05;98455.94;15289745;19;20053;-78
2022/08/28 15:44:08;;;;;;;2.70;1.40;;;;;;;26.87;74.89;98452.28;15283857;19;20304;-78
2022/08/28 15:49:20;;;;;;;3.90;1.55;;;;;;;26.91;71.02;98458.91;15281666;19;20003;-76
2022/08/28 15:54:28;;;;;;;2.40;1.35;;;;;;;26.89;64.95;98448.13;15281016;19;20021;-77
2022/08/28 15:59:35;;;;;;;5.20;1.45;;;;;;;27.07;69.71;98446.00;15274888;19;20032;-77
2022/08/28 16:04:54;;;;;;;4.15;1.58;;;;;;;27.07;65.02;98446.84;15271324;19;20029;-77
2022/08/28 16:09:59;;;;;;;5.60;1.50;;;;;;;26.89;57.07;98439.00;15281430;19;20022;-78
2022/08/28 16:15:09;;;;;;;2.78;1.42;;;;;;;26.59;55.04;98440.47;15277015;19;20022;-77
2022/08/28 16:20:14;;;;;;;4.25;1.65;;;;;;;26.28;58.99;98451.28;15279725;19;20356;-79
2022/08/28 16:25:22;;;;;;;3.72;1.55;;;;;;;26.35;64.40;98449.13;15277174;19;20026;-78
2022/08/28 16:30:30;;;;;;;3.05;1.60;;;;;;;26.22;62.89;98431.09;15275746;19;20014;-76
2022/08/28 16:35:35;;;;;;;4.28;1.67;;;;;;;26.23;62.80;98431.91;15262501;19;20033;-77
2022/08/28 16:40:43;;;;;;;2.88;1.40;;;;;;;26.44;66.09;98439.25;15281989;19;20006;-78
2022/08/28 16:45:51;;;;;;;3.55;1.50;;;;;;;26.51;66.23;98440.97;15285799;19;20011;-79
2022/08/28 16:50:56;;;;;;;5.63;1.70;;;;;;;26.45;62.24;98440.09;15275830;19;20050;-77
2022/08/28 16:56:01;;;;;;;5.22;1.48;;;;;;;26.46;61.99;98447.28;15274152;19;20014;-77
2022/08/28 17:01:09;;;;;;;3.65;1.60;;;;;;;26.55;65.02;98448.44;15282141;19;20010;-79
2022/08/28 17:06:22;;;;;;;2.73;1.40;;;;;;;26.33;65.67;98447.72;15270584;19;20433;-78
2022/08/28 17:11:28;;;;;;;2.95;1.30;;;;;;;26.28;68.56;98448.53;15279215;19;20026;-76
2022/08/28 17:16:35;;;;;;;3.75;1.65;;;;;;;26.21;72.18;98454.28;15283421;19;20014;-77
2022/08/28 17:27:01;;;;;;;3.38;1.38;;;;;;;25.42;80.45;98444.59;15346539;19;20059;-80
2022/08/28 17:32:13;;;;;;;4.57;1.52;;;;;;;25.10;89.89;98454.41;15343593;19;20014;-78
2022/08/28 17:37:19;;;;;;;6.05;1.67;;;;;;;24.68;94.25;98454.88;15282928;19;20014;-77
2022/08/28 17:42:24;;;;;;;3.22;1.50;;;;;;;24.31;97.30;98456.28;15295013;19;20050;-78
2022/08/28 17:47:33;;;;;;;3.58;1.65;;;;;;;23.95;99.37;98459.22;15296515;19;20011;-77
2022/08/28 17:52:38;;;;;;;6.03;1.98;;;;;;;23.58;100.00;98464.28;15292892;19;20014;-78
2022/08/28 17:57:44;;;;;;;4.47;1.50;;;;;;;23.15;100.00;98474.66;15294570;19;20022;-81
2022/08/28 18:02:54;;;;;;;5.68;1.63;;;;;;;22.82;100.00;98476.97;15294017;19;20022;-77
2022/08/28 18:07:59;;;;;;;5.57;1.58;;;;;;;22.40;100.00;98477.91;15312170;19;21129;-75
2022/08/28 18:13:07;;;;;;;3.97;1.40;;;;;;;22.10;100.00;98488.97;15322382;19;20015;-74
2022/08/28 18:18:15;;;;;;;4.88;1.40;;;;;;;21.79;100.00;98491.75;15306902;19;20011;-77
2022/08/28 18:23:21;;;;;;;3.38;1.40;;;;;;;21.50;100.00;98491.44;15303139;19;20046;-78
2022/08/28 18:28:27;;;;;;;5.90;1.38;;;;;;;21.28;100.00;98503.97;15297531;19;20557;-77
2022/08/28 18:33:35;;;;;;;3.55;1.42;;;;;;;21.10;100.00;98502.91;15296271;19;20018;-78
2022/08/28 18:38:41;;;;;;;6.32;1.27;;;;;;;20.87;100.00;98507.16;15300834;19;20359;-78
2022/08/28 18:43:47;;;;;;;4.32;1.27;;;;;;;20.58;100.00;98511.41;15291169;19;20069;-79
2022/08/28 18:48:55;;;;;;;5.18;1.55;;;;;;;20.40;100.00;98523.13;15282833;19;20019;-78
2022/08/28 18:54:00;;;;;;;4.18;1.33;;;;;;;20.12;100.00;98532.59;15287379;19;20050;-77
2022/08/28 18:59:05;;;;;;;4.88;1.30;;;;;;;19.95;100.00;98533.09;15289528;19;20022;-81
2022/08/28 19:04:13;;;;;;;3.80;1.50;;;;;;;19.76;100.00;98544.97;15290813;19;20132;-76
2022/08/28 19:09:18;;;;;;;5.03;1.20;;;;;;;19.59;100.00;98550.09;15290861;19;20015;-77
2022/08/28 19:14:26;;;;;;;4.72;1.52;;;;;;;19.39;100.00;98554.56;15271203;19;20125;-78
2022/08/28 19:19:34;;;;;;;3.78;1.30;;;;;;;19.24;100.00;98564.91;15261176;19;20042;-78
2022/08/28 19:24:40;;;;;;;4.20;1.50;;;;;;;19.11;100.00;98564.97;15279649;19;20023;-78
2022/08/28 19:29:44;;;;;;;3.53;1.40;;;;;;;18.98;100.00;98580.31;15284677;19;20034;-78
2022/08/28 19:34:51;;;;;;;4.90;1.60;;;;;;;18.84;100.00;98584.06;15283897;19;20594;-78
2022/08/28 19:39:57;;;;;;;3.85;1.40;;;;;;;18.66;100.00;98596.44;15293015;19;20010;-77
2022/08/28 19:45:02;;;;;;;4.90;1.55;;;;;;;18.57;100.00;98603.16;15295349;19;20027;-79
2022/08/28 19:50:12;;;;;;;3.97;1.30;;;;;;;18.52;100.00;98611.16;15286595;19;20380;-77
2022/08/28 19:55:19;;;;;;;4.53;1.33;;;;;;;18.47;100.00;98607.16;15290776;19;20014;-77
2022/08/28 20:00:27;;;;;;;5.55;1.70;;;;;;;18.38;100.00;98616.59;15287815;19;20030;-77
2022/08/28 20:05:34;;;;;;;4.88;1.40;;;;;;;18.32;100.00;98617.41;15290069;19;20054;-78
2022/08/28 20:10:42;;;;;;;3.08;1.23;;;;;;;18.23;100.00;98629.56;15285303;19;20015;-76
2022/08/28 20:15:51;;;;;;;5.07;1.30;;;;;;;18.15;100.00;98628.72;15274933;19;20010;-76
2022/08/28 20:20:59;;;;;;;3.20;1.30;;;;;;;18.09;100.00;98624.06;15264061;19;20003;-76
2022/08/28 20:26:04;;;;;;;4.38;1.42;;;;;;;18.07;100.00;98626.16;15272959;19;20151;-77
2022/08/28 20:31:10;;;;;;;5.47;1.60;;;;;;;18.05;100.00;98625.50;15282640;19;20021;-78
2022/08/28 20:36:19;;;;;;;3.17;1.33;;;;;;;18.00;100.00;98630.75;15288457;19;20262;-78
2022/08/28 20:41:25;;;;;;;5.20;1.45;;;;;;;17.95;100.00;98633.22;15277433;19;20078;-77
2022/08/28 20:46:30;;;;;;;3.40;1.50;;;;;;;17.80;100.00;98634.22;15269182;19;20389;-77
2022/08/28 20:51:55;;;;;;;3.25;1.33;;;;;;;17.70;100.00;98642.75;15271128;19;20455;-76
2022/08/28 20:57:03;;;;;;;3.45;1.25;;;;;;;17.55;100.00;98644.75;15290204;19;20546;-76
2022/08/28 21:02:11;;;;;;;4.53;1.60;;;;;;;17.45;100.00;98649.75;15289703;19;20035;-76
2022/08/28 21:07:20;;;;;;;3.90;1.48;;;;;;;17.30;100.00;98658.03;15292758;19;20030;-76
2022/08/28 21:12:25;;;;;;;5.80;1.40;;;;;;;17.16;100.00;98660.66;15290480;19;20090;-76
2022/08/28 21:17:30;;;;;;;4.03;1.38;;;;;;;17.06;100.00;98666.44;15292493;19;20034;-76
2022/08/28 21:22:38;;;;;;;4.00;1.50;;;;;;;16.93;100.00;98667.16;15288089;19;20602;-76
2022/08/28 21:27:50;;;;;;;4.45;1.60;;;;;;;16.84;100.00;98664.75;15323788;19;20002;-76
2022/08/28 21:32:55;;;;;;;3.08;1.20;;;;;;;16.70;100.00;98661.91;15333689;19;20007;-79
2022/08/28 21:38:03;;;;;;;7.07;1.50;;;;;;;16.64;100.00;98663.53;15289440;19;20018;-75
2022/08/28 21:43:08;;;;;;;3.42;1.40;;;;;;;16.63;100.00;98670.03;15292129;19;20042;-76
2022/08/28 21:48:13;;;;;;;4.80;1.50;;;;;;;16.67;100.00;98673.19;15293388;19;20022;-75
2022/08/28 21:53:21;;;;;;;3.70;1.40;;;;;;;16.70;100.00;98677.41;15284086;19;20074;-76
2022/08/28 21:58:26;;;;;;;4.82;1.40;;;;;;;16.64;100.00;98671.69;15286702;19;20018;-78
2022/08/28 22:03:32;;;;;;;5.78;1.50;;;;;;;16.55;100.00;98691.06;15286701;19;20007;-76
2022/08/28 22:08:39;;;;;;;3.53;1.30;;;;;;;16.36;100.00;98692.53;14775784;19;10000454;-78
2022/08/28 22:13:44;;;;;;;3.70;1.60;;;;;;;16.24;100.00;98695.75;15283782;19;20006;-77
2022/08/28 22:18:52;;;;;;;4.10;1.50;;;;;;;16.12;100.00;98695.38;15286230;19;20050;-77
2022/08/28 22:23:59;;;;;;;6.20;1.50;;;;;;;16.03;100.00;98701.97;15288374;19;20010;-75
2022/08/28 22:29:05;;;;;;;2.97;1.23;;;;;;;15.98;100.00;98702.53;15281359;19;20031;-75
2022/08/28 22:34:09;;;;;;;3.70;1.40;;;;;;;15.94;100.00;98714.00;15286253;19;20019;-76
2022/08/28 22:39:17;;;;;;;3.35;1.20;;;;;;;15.81;100.00;98712.75;15287756;19;20006;-76
2022/08/28 22:44:21;;;;;;;3.45;1.33;;;;;;;15.70;100.00;98714.03;14983218;19;5000958;-77
2022/08/28 22:49:27;;;;;;;3.80;1.60;;;;;;;15.64;100.00;98703.94;15287423;19;20014;-75
2022/08/28 22:54:36;;;;;;;4.45;1.42;;;;;;;15.57;100.00;98708.44;15289229;19;20035;-75
2022/08/28 22:59:40;;;;;;;3.60;1.50;;;;;;;15.42;100.00;98711.13;15284171;19;20021;-75
2022/08/28 23:04:45;;;;;;;6.68;1.60;;;;;;;15.28;100.00;98720.13;15289692;19;20015;-75
2022/08/28 23:09:58;;;;;;;3.55;1.40;;;;;;;15.25;100.00;98721.31;15290919;19;20034;-76
2022/08/28 23:15:02;;;;;;;2.88;1.40;;;;;;;15.07;100.00;98725.22;15283790;19;20047;-75
2022/08/28 23:20:09;;;;;;;4.70;1.67;;;;;;;15.03;100.00;98720.34;15287283;19;20042;-77
2022/08/28 23:25:21;;;;;;;3.92;1.35;;;;;;;14.95;100.00;98721.25;15284127;19;20439;-79
2022/08/28 23:30:28;;;;;;;3.45;1.40;;;;;;;14.87;100.00;98719.44;15288755;19;21042;-75
2022/08/28 23:35:32;;;;;;;4.55;1.30;;;;;;;14.80;100.00;98723.91;15271005;19;20382;-78
2022/08/28 23:40:40;;;;;;;4.38;1.50;;;;;;;14.76;100.00;98730.72;15274986;19;20050;-78
2022/08/28 23:45:45;;;;;;;5.93;1.50;;;;;;;14.70;100.00;98729.56;15274062;19;20027;-77
2022/08/28 23:50:51;;;;;;;4.07;1.50;;;;;;;14.65;100.00;98726.50;15272239;19;20028;-77
2022/08/28 23:55:59;;;;;;;4.78;1.60;;;;;;;14.61;100.00;98733.34;15264562;19;20034;-77
